Terminal Aerodrome Forecast
Issued by NWS Paducah, KY

Home | Current Version | Previous Version | Text Only | Print | Product List | Glossary On
Versions: 1 2 3 4 5 6 7 8 9 10 11 12 13 14 15 16 17
000
FTUS43 KPAH 202002 AAA
TAFPAH
TAF AMD
KPAH 202002Z 2020/2118 19007KT P6SM BKN035
      TEMPO 2020/2022 BKN025
     FM210500 19008KT P6SM SCT250=

USA.gov is the U.S. government's official web portal to all federal, state and local government web resources and services.